Bitburg Airport


Codes: EDRB/BBJ
Name: Bitburg Airport
City: Bitburg
Country: Germany
Elevation: 1220 ft.

Photos at Bitburg Airport


   Photos courtesy of SpottingLog. You can add your own sightings and photos by signing up for a free trial today.



No photos found.

Weather at Bitburg Airport


Time (UTC)DescriptionTempratureWindCloud coverageVisibilityPressureHumidity
23-May-2024 21:00Light Rain14°C2 mph, S47%10000m1017hPa78%
24-May-2024 00:00Broken Clouds12°C2 mph, S73%10000m1017hPa86%
24-May-2024 03:00Light Rain10°C2 mph, SE100%10000m1018hPa96%
24-May-2024 06:00Light Rain11°C0 mph, N100%10000m1018hPa97%
24-May-2024 09:00Light Rain12°C4 mph, E100%10000m1019hPa95%
24-May-2024 12:00Light Rain15°C2 mph, NE100%10000m1018hPa75%
24-May-2024 15:00Light Rain15°C2 mph, S84%10000m1017hPa80%
24-May-2024 18:00Light Rain15°C0 mph, S63%10000m1016hPa90%
24-May-2024 21:00Light Rain10°C0 mph, S17%10000m1017hPa91%
25-May-2024 00:00Few Clouds9°C2 mph, E16%10000m1018hPa94%
25-May-2024 03:00Few Clouds8°C0 mph, S12%10000m1018hPa96%
25-May-2024 06:00Few Clouds11°C0 mph, S12%10000m1018hPa94%
25-May-2024 09:00Broken Clouds15°C4 mph, SW75%10000m1018hPa79%
25-May-2024 12:00Light Rain18°C7 mph, SW74%10000m1018hPa71%
25-May-2024 15:00Light Rain18°C4 mph, W42%10000m1017hPa69%
25-May-2024 18:00Light Rain17°C2 mph, W58%10000m1017hPa77%
25-May-2024 21:00Scattered Clouds12°C0 mph, E37%10000m1018hPa87%
26-May-2024 00:00Broken Clouds10°C2 mph, E68%10000m1018hPa92%
26-May-2024 03:00Overcast Clouds10°C2 mph, E100%10000m1018hPa94%
26-May-2024 06:00Overcast Clouds13°C2 mph, SE96%10000m1018hPa90%
26-May-2024 09:00Light Rain17°C7 mph, S100%10000m1018hPa81%
26-May-2024 12:00Light Rain17°C9 mph, S100%10000m1018hPa82%
26-May-2024 15:00Light Rain17°C13 mph, SW57%8740m1017hPa85%
26-May-2024 18:00Light Rain15°C9 mph, SW77%10000m1018hPa92%
26-May-2024 21:00Overcast Clouds12°C4 mph, SW100%10000m1019hPa96%
27-May-2024 00:00Overcast Clouds11°C2 mph, SW100%10000m1019hPa96%
27-May-2024 03:00Overcast Clouds11°C2 mph, S100%10000m1019hPa97%
27-May-2024 06:00Overcast Clouds13°C2 mph, S100%10000m1019hPa94%
27-May-2024 09:00Light Rain15°C7 mph, SW100%10000m1019hPa88%
27-May-2024 12:00Light Rain17°C9 mph, SW97%10000m1017hPa80%
27-May-2024 15:00Light Rain16°C11 mph, SW98%8989m1017hPa85%
27-May-2024 18:00Light Rain12°C7 mph, SW99%10000m1018hPa95%
27-May-2024 21:00Light Rain10°C7 mph, SW100%10000m1019hPa94%
28-May-2024 00:00Broken Clouds7°C4 mph, SW61%10000m1020hPa94%
28-May-2024 03:00Few Clouds6°C2 mph, SW11%10000m1020hPa94%
28-May-2024 06:00Clear Sky9°C4 mph, SW8%10000m1021hPa92%
28-May-2024 09:00Light Rain12°C9 mph, SW68%10000m1020hPa85%
28-May-2024 12:00Light Rain13°C11 mph, SW84%10000m1019hPa83%
28-May-2024 15:00Light Rain13°C11 mph, SW89%10000m1018hPa84%
28-May-2024 18:00Light Rain12°C9 mph, SW94%10000m1018hPa90%